sensor_id;sensor_type;location;lat;lon;timestamp;temperature;humidity
21306;DHT22;10812;51.838;5.838;2023-07-22T00:06:05;15.10;99.90
21306;DHT22;10812;51.838;5.838;2023-07-22T00:08:34;15.10;99.90
21306;DHT22;10812;51.838;5.838;2023-07-22T00:22:28;15.00;99.90
21306;DHT22;10812;51.838;5.838;2023-07-22T00:24:56;15.00;99.90
21306;DHT22;10812;51.838;5.838;2023-07-22T00:27:26;14.90;99.90
21306;DHT22;10812;51.838;5.838;2023-07-22T00:29:54;14.90;99.90
21306;DHT22;10812;51.838;5.838;2023-07-22T00:32:23;14.80;99.90
21306;DHT22;10812;51.838;5.838;2023-07-22T00:34:51;14.80;99.90
21306;DHT22;10812;51.838;5.838;2023-07-22T00:37:19;14.70;99.90
21306;DHT22;10812;51.838;5.838;2023-07-22T00:39:49;14.60;99.90
21306;DHT22;10812;51.838;5.838;2023-07-22T00:42:17;14.60;99.90
21306;DHT22;10812;51.838;5.838;2023-07-22T00:44:45;14.50;99.90
21306;DHT22;10812;51.838;5.838;2023-07-22T00:47:13;14.60;99.90
21306;DHT22;10812;51.838;5.838;2023-07-22T00:49:43;14.60;99.90
21306;DHT22;10812;51.838;5.838;2023-07-22T00:52:11;14.60;99.90
21306;DHT22;10812;51.838;5.838;2023-07-22T00:54:39;14.70;99.90
21306;DHT22;10812;51.838;5.838;2023-07-22T00:57:09;14.80;99.90
21306;DHT22;10812;51.838;5.838;2023-07-22T00:59:39;14.80;99.90
21306;DHT22;10812;51.838;5.838;2023-07-22T01:02:08;14.90;99.90
21306;DHT22;10812;51.838;5.838;2023-07-22T01:04:37;14.90;99.90
21306;DHT22;10812;51.838;5.838;2023-07-22T01:07:05;15.00;99.90
21306;DHT22;10812;51.838;5.838;2023-07-22T01:09:35;15.00;99.90
21306;DHT22;10812;51.838;5.838;2023-07-22T01:15:53;15.00;99.90
21306;DHT22;10812;51.838;5.838;2023-07-22T01:18:21;15.00;99.90
21306;DHT22;10812;51.838;5.838;2023-07-22T01:20:49;15.00;99.90
21306;DHT22;10812;51.838;5.838;2023-07-22T01:23:19;14.90;99.90
21306;DHT22;10812;51.838;5.838;2023-07-22T01:25:47;14.90;99.90
21306;DHT22;10812;51.838;5.838;2023-07-22T01:28:16;14.90;99.90
21306;DHT22;10812;51.838;5.838;2023-07-22T01:30:44;14.90;99.90
21306;DHT22;10812;51.838;5.838;2023-07-22T01:33:12;14.90;99.90
21306;DHT22;10812;51.838;5.838;2023-07-22T01:35:40;14.90;99.90
21306;DHT22;10812;51.838;5.838;2023-07-22T01:38:08;14.80;99.90
21306;DHT22;10812;51.838;5.838;2023-07-22T01:40:38;14.80;99.90
21306;DHT22;10812;51.838;5.838;2023-07-22T01:43:06;14.70;99.90
21306;DHT22;10812;51.838;5.838;2023-07-22T01:45:34;14.60;99.90
21306;DHT22;10812;51.838;5.838;2023-07-22T01:48:02;14.50;99.90
21306;DHT22;10812;51.838;5.838;2023-07-22T01:50:31;14.50;99.90
21306;DHT22;10812;51.838;5.838;2023-07-22T01:52:59;14.50;99.90
21306;DHT22;10812;51.838;5.838;2023-07-22T01:55:27;14.40;99.90
21306;DHT22;10812;51.838;5.838;2023-07-22T01:57:56;14.30;99.90
21306;DHT22;10812;51.838;5.838;2023-07-22T02:00:24;14.30;99.90
21306;DHT22;10812;51.838;5.838;2023-07-22T02:02:53;14.30;99.90
21306;DHT22;10812;51.838;5.838;2023-07-22T02:05:21;14.20;99.90
21306;DHT22;10812;51.838;5.838;2023-07-22T02:07:51;14.30;99.90
21306;DHT22;10812;51.838;5.838;2023-07-22T02:10:19;14.30;99.90
21306;DHT22;10812;51.838;5.838;2023-07-22T02:12:47;14.30;99.90
21306;DHT22;10812;51.838;5.838;2023-07-22T02:15:17;14.30;99.90
21306;DHT22;10812;51.838;5.838;2023-07-22T02:17:45;14.30;99.90
21306;DHT22;10812;51.838;5.838;2023-07-22T02:20:13;14.30;99.90
21306;DHT22;10812;51.838;5.838;2023-07-22T02:22:41;14.40;99.90
21306;DHT22;10812;51.838;5.838;2023-07-22T02:25:09;14.40;99.90
21306;DHT22;10812;51.838;5.838;2023-07-22T02:27:38;14.40;99.90
21306;DHT22;10812;51.838;5.838;2023-07-22T02:30:08;14.40;99.90
21306;DHT22;10812;51.838;5.838;2023-07-22T02:32:39;14.40;99.90
21306;DHT22;10812;51.838;5.838;2023-07-22T02:35:09;14.50;99.90
21306;DHT22;10812;51.838;5.838;2023-07-22T02:37:38;14.50;99.90
21306;DHT22;10812;51.838;5.838;2023-07-22T02:40:07;14.40;99.90
21306;DHT22;10812;51.838;5.838;2023-07-22T02:42:38;14.40;99.90
21306;DHT22;10812;51.838;5.838;2023-07-22T02:45:07;14.40;99.90
21306;DHT22;10812;51.838;5.838;2023-07-22T02:47:36;14.30;99.90
21306;DHT22;10812;51.838;5.838;2023-07-22T02:50:06;14.30;99.90
21306;DHT22;10812;51.838;5.838;2023-07-22T02:52:34;14.30;99.90
21306;DHT22;10812;51.838;5.838;2023-07-22T02:55:08;14.20;99.90
21306;DHT22;10812;51.838;5.838;2023-07-22T02:57:38;14.20;99.90
21306;DHT22;10812;51.838;5.838;2023-07-22T03:08:10;14.10;99.90
21306;DHT22;10812;51.838;5.838;2023-07-22T03:10:57;14.10;99.90
21306;DHT22;10812;51.838;5.838;2023-07-22T03:13:25;14.00;99.90
21306;DHT22;10812;51.838;5.838;2023-07-22T03:15:57;13.90;99.90
21306;DHT22;10812;51.838;5.838;2023-07-22T03:18:25;13.90;99.90
21306;DHT22;10812;51.838;5.838;2023-07-22T03:20:53;13.90;99.90
21306;DHT22;10812;51.838;5.838;2023-07-22T03:23:23;13.80;99.90
21306;DHT22;10812;51.838;5.838;2023-07-22T03:25:51;13.80;99.90
21306;DHT22;10812;51.838;5.838;2023-07-22T03:28:19;13.80;99.90
21306;DHT22;10812;51.838;5.838;2023-07-22T03:30:47;13.70;99.90
21306;DHT22;10812;51.838;5.838;2023-07-22T03:33:15;13.70;99.90
21306;DHT22;10812;51.838;5.838;2023-07-22T03:35:43;13.70;99.90
21306;DHT22;10812;51.838;5.838;2023-07-22T03:38:11;13.70;99.90
21306;DHT22;10812;51.838;5.838;2023-07-22T03:40:41;13.70;99.90
21306;DHT22;10812;51.838;5.838;2023-07-22T03:43:09;13.70;99.90
21306;DHT22;10812;51.838;5.838;2023-07-22T03:45:37;13.70;99.90
21306;DHT22;10812;51.838;5.838;2023-07-22T03:48:06;13.70;99.90
21306;DHT22;10812;51.838;5.838;2023-07-22T03:50:34;13.70;99.90
21306;DHT22;10812;51.838;5.838;2023-07-22T03:53:02;13.70;99.90
21306;DHT22;10812;51.838;5.838;2023-07-22T03:55:30;13.70;99.90
21306;DHT22;10812;51.838;5.838;2023-07-22T03:57:59;13.70;99.90
21306;DHT22;10812;51.838;5.838;2023-07-22T04:00:27;13.60;99.90
21306;DHT22;10812;51.838;5.838;2023-07-22T04:02:55;13.60;99.90
21306;DHT22;10812;51.838;5.838;2023-07-22T04:05:24;13.60;99.90
21306;DHT22;10812;51.838;5.838;2023-07-22T04:07:52;13.60;99.90
21306;DHT22;10812;51.838;5.838;2023-07-22T04:10:20;13.60;99.90
21306;DHT22;10812;51.838;5.838;2023-07-22T04:12:48;13.60;99.90
21306;DHT22;10812;51.838;5.838;2023-07-22T04:15:17;13.60;99.90
21306;DHT22;10812;51.838;5.838;2023-07-22T04:17:45;13.60;99.90
21306;DHT22;10812;51.838;5.838;2023-07-22T04:20:14;13.70;99.90
21306;DHT22;10812;51.838;5.838;2023-07-22T04:22:42;13.70;99.90
21306;DHT22;10812;51.838;5.838;2023-07-22T04:25:10;13.80;99.90
21306;DHT22;10812;51.838;5.838;2023-07-22T04:27:39;13.80;99.90
21306;DHT22;10812;51.838;5.838;2023-07-22T04:30:07;13.90;99.90
21306;DHT22;10812;51.838;5.838;2023-07-22T04:32:37;13.90;99.90
21306;DHT22;10812;51.838;5.838;2023-07-22T04:35:07;14.00;99.90
21306;DHT22;10812;51.838;5.838;2023-07-22T04:37:35;14.10;99.90
21306;DHT22;10812;51.838;5.838;2023-07-22T04:40:04;14.10;99.90
21306;DHT22;10812;51.838;5.838;2023-07-22T04:42:35;14.10;99.90
21306;DHT22;10812;51.838;5.838;2023-07-22T04:45:04;14.20;99.90
21306;DHT22;10812;51.838;5.838;2023-07-22T04:47:33;14.30;99.90
21306;DHT22;10812;51.838;5.838;2023-07-22T04:50:02;14.40;99.90
21306;DHT22;10812;51.838;5.838;2023-07-22T04:52:30;14.50;99.90
21306;DHT22;10812;51.838;5.838;2023-07-22T04:54:58;14.70;99.90
21306;DHT22;10812;51.838;5.838;2023-07-22T04:57:26;14.80;99.90
21306;DHT22;10812;51.838;5.838;2023-07-22T04:59:55;14.80;99.90
21306;DHT22;10812;51.838;5.838;2023-07-22T05:02:23;14.90;99.90
21306;DHT22;10812;51.838;5.838;2023-07-22T05:04:51;15.00;99.90
21306;DHT22;10812;51.838;5.838;2023-07-22T05:07:20;15.10;99.90
21306;DHT22;10812;51.838;5.838;2023-07-22T05:09:48;15.20;99.90
21306;DHT22;10812;51.838;5.838;2023-07-22T05:12:16;15.20;99.90
21306;DHT22;10812;51.838;5.838;2023-07-22T05:14:45;15.20;99.90
21306;DHT22;10812;51.838;5.838;2023-07-22T05:17:13;15.30;99.90
21306;DHT22;10812;51.838;5.838;2023-07-22T05:19:41;15.20;99.90
21306;DHT22;10812;51.838;5.838;2023-07-22T05:22:09;15.30;99.90
21306;DHT22;10812;51.838;5.838;2023-07-22T05:24:38;15.40;99.90
21306;DHT22;10812;51.838;5.838;2023-07-22T05:27:07;15.40;99.90
21306;DHT22;10812;51.838;5.838;2023-07-22T05:29:36;15.50;99.90
21306;DHT22;10812;51.838;5.838;2023-07-22T05:32:04;15.70;99.90
21306;DHT22;10812;51.838;5.838;2023-07-22T05:34:52;15.80;99.90
21306;DHT22;10812;51.838;5.838;2023-07-22T05:37:21;16.10;99.90
21306;DHT22;10812;51.838;5.838;2023-07-22T05:39:50;16.50;99.90
21306;DHT22;10812;51.838;5.838;2023-07-22T05:42:18;16.80;99.90
21306;DHT22;10812;51.838;5.838;2023-07-22T05:44:48;17.10;99.90
21306;DHT22;10812;51.838;5.838;2023-07-22T05:47:16;17.40;99.90
21306;DHT22;10812;51.838;5.838;2023-07-22T05:49:45;17.70;99.90
21306;DHT22;10812;51.838;5.838;2023-07-22T05:52:13;17.80;99.90
21306;DHT22;10812;51.838;5.838;2023-07-22T05:54:41;18.00;99.90
21306;DHT22;10812;51.838;5.838;2023-07-22T05:57:10;18.30;99.90
21306;DHT22;10812;51.838;5.838;2023-07-22T05:59:38;18.30;99.90
21306;DHT22;10812;51.838;5.838;2023-07-22T06:02:08;18.20;99.90
21306;DHT22;10812;51.838;5.838;2023-07-22T06:04:37;18.40;99.90
21306;DHT22;10812;51.838;5.838;2023-07-22T06:07:05;18.60;99.90
21306;DHT22;10812;51.838;5.838;2023-07-22T06:09:33;18.70;99.90
21306;DHT22;10812;51.838;5.838;2023-07-22T06:12:02;18.90;99.90
21306;DHT22;10812;51.838;5.838;2023-07-22T06:14:32;19.00;99.90
21306;DHT22;10812;51.838;5.838;2023-07-22T06:17:00;20.10;99.90
21306;DHT22;10812;51.838;5.838;2023-07-22T06:19:29;22.10;99.90
21306;DHT22;10812;51.838;5.838;2023-07-22T06:21:57;22.90;99.90
21306;DHT22;10812;51.838;5.838;2023-07-22T06:24:25;22.50;99.90
21306;DHT22;10812;51.838;5.838;2023-07-22T06:26:53;21.70;99.90
21306;DHT22;10812;51.838;5.838;2023-07-22T06:29:21;21.00;99.90
21306;DHT22;10812;51.838;5.838;2023-07-22T06:31:50;20.50;99.90
21306;DHT22;10812;51.838;5.838;2023-07-22T06:34:19;20.30;99.90
21306;DHT22;10812;51.838;5.838;2023-07-22T06:36:47;20.30;99.90
21306;DHT22;10812;51.838;5.838;2023-07-22T06:39:15;20.50;99.90
21306;DHT22;10812;51.838;5.838;2023-07-22T06:41:43;20.50;99.90
21306;DHT22;10812;51.838;5.838;2023-07-22T06:44:11;20.60;99.90
21306;DHT22;10812;51.838;5.838;2023-07-22T06:46:39;20.90;99.90
21306;DHT22;10812;51.838;5.838;2023-07-22T06:49:09;20.90;99.90
21306;DHT22;10812;51.838;5.838;2023-07-22T06:51:37;20.80;99.90
21306;DHT22;10812;51.838;5.838;2023-07-22T06:54:05;21.30;99.90
21306;DHT22;10812;51.838;5.838;2023-07-22T06:56:33;23.50;99.90
21306;DHT22;10812;51.838;5.838;2023-07-22T06:59:01;24.90;99.90
21306;DHT22;10812;51.838;5.838;2023-07-22T07:01:30;25.50;99.90
21306;DHT22;10812;51.838;5.838;2023-07-22T07:03:58;24.60;99.90
21306;DHT22;10812;51.838;5.838;2023-07-22T07:06:28;24.00;99.90
21306;DHT22;10812;51.838;5.838;2023-07-22T07:08:59;23.70;99.90
21306;DHT22;10812;51.838;5.838;2023-07-22T07:11:28;23.40;99.90
21306;DHT22;10812;51.838;5.838;2023-07-22T07:13:56;23.00;99.90
21306;DHT22;10812;51.838;5.838;2023-07-22T07:16:26;22.60;99.90
21306;DHT22;10812;51.838;5.838;2023-07-22T07:18:55;22.30;99.90
21306;DHT22;10812;51.838;5.838;2023-07-22T07:21:23;22.00;99.90
21306;DHT22;10812;51.838;5.838;2023-07-22T07:23:53;22.20;99.90
21306;DHT22;10812;51.838;5.838;2023-07-22T07:26:22;22.50;99.90
21306;DHT22;10812;51.838;5.838;2023-07-22T07:28:51;22.80;99.90
21306;DHT22;10812;51.838;5.838;2023-07-22T07:31:19;22.70;99.90
21306;DHT22;10812;51.838;5.838;2023-07-22T07:33:47;22.50;99.90
21306;DHT22;10812;51.838;5.838;2023-07-22T07:36:16;22.00;99.90
21306;DHT22;10812;51.838;5.838;2023-07-22T07:38:44;21.70;99.90
21306;DHT22;10812;51.838;5.838;2023-07-22T07:41:13;21.40;99.90
21306;DHT22;10812;51.838;5.838;2023-07-22T07:43:42;21.40;99.90
21306;DHT22;10812;51.838;5.838;2023-07-22T07:46:16;21.50;99.90
21306;DHT22;10812;51.838;5.838;2023-07-22T07:48:45;21.70;99.90
21306;DHT22;10812;51.838;5.838;2023-07-22T07:51:15;22.00;99.90
21306;DHT22;10812;51.838;5.838;2023-07-22T07:53:43;22.20;99.90
21306;DHT22;10812;51.838;5.838;2023-07-22T07:56:14;22.30;99.90
21306;DHT22;10812;51.838;5.838;2023-07-22T07:58:43;22.60;99.90
21306;DHT22;10812;51.838;5.838;2023-07-22T08:01:11;22.30;99.90
21306;DHT22;10812;51.838;5.838;2023-07-22T08:03:41;22.30;99.90
21306;DHT22;10812;51.838;5.838;2023-07-22T08:06:09;22.50;99.90
21306;DHT22;10812;51.838;5.838;2023-07-22T08:08:38;22.40;99.90
21306;DHT22;10812;51.838;5.838;2023-07-22T08:11:07;22.50;99.90
21306;DHT22;10812;51.838;5.838;2023-07-22T08:13:37;22.70;99.90
21306;DHT22;10812;51.838;5.838;2023-07-22T08:16:08;22.90;99.90
21306;DHT22;10812;51.838;5.838;2023-07-22T08:18:37;23.10;99.90
21306;DHT22;10812;51.838;5.838;2023-07-22T08:21:06;23.00;99.90
21306;DHT22;10812;51.838;5.838;2023-07-22T08:23:36;22.70;99.90
21306;DHT22;10812;51.838;5.838;2023-07-22T08:26:04;22.50;99.90
21306;DHT22;10812;51.838;5.838;2023-07-22T08:28:33;22.30;99.90
21306;DHT22;10812;51.838;5.838;2023-07-22T08:31:03;22.40;99.90
21306;DHT22;10812;51.838;5.838;2023-07-22T08:33:31;22.30;99.90
21306;DHT22;10812;51.838;5.838;2023-07-22T08:36:02;22.50;99.90
21306;DHT22;10812;51.838;5.838;2023-07-22T08:38:30;22.90;99.90
21306;DHT22;10812;51.838;5.838;2023-07-22T08:40:58;23.70;99.90
21306;DHT22;10812;51.838;5.838;2023-07-22T08:43:28;24.30;99.90
21306;DHT22;10812;51.838;5.838;2023-07-22T08:46:00;24.30;99.90
21306;DHT22;10812;51.838;5.838;2023-07-22T08:48:31;24.10;99.90
21306;DHT22;10812;51.838;5.838;2023-07-22T08:51:03;23.90;99.90
21306;DHT22;10812;51.838;5.838;2023-07-22T08:53:33;23.60;99.90
21306;DHT22;10812;51.838;5.838;2023-07-22T08:56:01;23.50;99.90
21306;DHT22;10812;51.838;5.838;2023-07-22T08:58:29;23.40;99.90
21306;DHT22;10812;51.838;5.838;2023-07-22T09:00:58;23.20;99.90
21306;DHT22;10812;51.838;5.838;2023-07-22T09:03:26;23.30;99.90
21306;DHT22;10812;51.838;5.838;2023-07-22T09:05:57;23.50;99.90
21306;DHT22;10812;51.838;5.838;2023-07-22T09:08:25;23.50;99.90
21306;DHT22;10812;51.838;5.838;2023-07-22T09:10:54;23.40;99.90
21306;DHT22;10812;51.838;5.838;2023-07-22T09:13:22;23.50;99.90
21306;DHT22;10812;51.838;5.838;2023-07-22T09:15:51;23.50;99.90
21306;DHT22;10812;51.838;5.838;2023-07-22T09:18:19;23.70;99.90
21306;DHT22;10812;51.838;5.838;2023-07-22T09:20:47;23.70;99.90
21306;DHT22;10812;51.838;5.838;2023-07-22T09:23:17;24.00;99.90
21306;DHT22;10812;51.838;5.838;2023-07-22T09:25:45;24.30;99.90
21306;DHT22;10812;51.838;5.838;2023-07-22T09:28:13;24.30;99.90
21306;DHT22;10812;51.838;5.838;2023-07-22T09:30:41;24.20;99.90
21306;DHT22;10812;51.838;5.838;2023-07-22T09:33:20;24.40;99.90
21306;DHT22;10812;51.838;5.838;2023-07-22T09:35:49;24.20;99.90
21306;DHT22;10812;51.838;5.838;2023-07-22T09:38:24;23.90;99.90
21306;DHT22;10812;51.838;5.838;2023-07-22T09:40:53;23.70;99.90
21306;DHT22;10812;51.838;5.838;2023-07-22T09:43:23;23.60;99.90
21306;DHT22;10812;51.838;5.838;2023-07-22T09:45:51;23.40;99.90
21306;DHT22;10812;51.838;5.838;2023-07-22T09:48:21;23.20;99.90
21306;DHT22;10812;51.838;5.838;2023-07-22T09:50:56;23.20;99.90
21306;DHT22;10812;51.838;5.838;2023-07-22T09:53:25;23.30;99.90
21306;DHT22;10812;51.838;5.838;2023-07-22T09:55:53;23.50;99.90
21306;DHT22;10812;51.838;5.838;2023-07-22T09:58:24;23.50;99.90
21306;DHT22;10812;51.838;5.838;2023-07-22T10:00:54;23.40;99.90
21306;DHT22;10812;51.838;5.838;2023-07-22T10:03:23;23.40;99.90
21306;DHT22;10812;51.838;5.838;2023-07-22T10:05:52;23.50;99.90
21306;DHT22;10812;51.838;5.838;2023-07-22T10:08:22;23.60;99.90
21306;DHT22;10812;51.838;5.838;2023-07-22T10:10:54;23.60;99.90
21306;DHT22;10812;51.838;5.838;2023-07-22T10:13:24;23.50;99.90
21306;DHT22;10812;51.838;5.838;2023-07-22T10:15:53;23.40;99.90
21306;DHT22;10812;51.838;5.838;2023-07-22T10:18:21;23.50;99.90
21306;DHT22;10812;51.838;5.838;2023-07-22T10:20:51;23.80;99.90
21306;DHT22;10812;51.838;5.838;2023-07-22T10:23:20;24.00;99.90
21306;DHT22;10812;51.838;5.838;2023-07-22T10:25:49;24.00;99.90
21306;DHT22;10812;51.838;5.838;2023-07-22T10:28:21;24.10;99.90
21306;DHT22;10812;51.838;5.838;2023-07-22T10:30:50;24.00;99.90
21306;DHT22;10812;51.838;5.838;2023-07-22T10:33:19;24.20;99.90
21306;DHT22;10812;51.838;5.838;2023-07-22T10:36:02;24.10;99.90
21306;DHT22;10812;51.838;5.838;2023-07-22T10:38:31;24.30;99.90
21306;DHT22;10812;51.838;5.838;2023-07-22T10:41:00;24.20;99.90
21306;DHT22;10812;51.838;5.838;2023-07-22T10:43:30;24.20;99.90
21306;DHT22;10812;51.838;5.838;2023-07-22T10:46:06;24.30;99.90
21306;DHT22;10812;51.838;5.838;2023-07-22T10:48:36;24.50;99.90
21306;DHT22;10812;51.838;5.838;2023-07-22T10:51:06;24.70;99.90
21306;DHT22;10812;51.838;5.838;2023-07-22T10:53:40;24.90;99.90
21306;DHT22;10812;51.838;5.838;2023-07-22T10:56:14;25.00;99.90
21306;DHT22;10812;51.838;5.838;2023-07-22T10:59:00;25.00;99.90
21306;DHT22;10812;51.838;5.838;2023-07-22T11:01:37;25.40;99.70
21306;DHT22;10812;51.838;5.838;2023-07-22T11:04:13;25.20;99.90
21306;DHT22;10812;51.838;5.838;2023-07-22T11:06:53;24.90;99.90
21306;DHT22;10812;51.838;5.838;2023-07-22T11:09:38;24.60;99.90
21306;DHT22;10812;51.838;5.838;2023-07-22T11:12:11;24.50;99.90
21306;DHT22;10812;51.838;5.838;2023-07-22T11:14:46;24.30;99.90
21306;DHT22;10812;51.838;5.838;2023-07-22T11:17:15;24.60;99.90
21306;DHT22;10812;51.838;5.838;2023-07-22T11:19:44;24.60;99.90
21306;DHT22;10812;51.838;5.838;2023-07-22T11:22:13;24.60;99.90
21306;DHT22;10812;51.838;5.838;2023-07-22T11:24:41;24.60;99.90
21306;DHT22;10812;51.838;5.838;2023-07-22T11:27:09;24.40;99.90
21306;DHT22;10812;51.838;5.838;2023-07-22T11:29:37;24.20;99.90
21306;DHT22;10812;51.838;5.838;2023-07-22T11:32:15;24.20;99.90
21306;DHT22;10812;51.838;5.838;2023-07-22T11:34:43;24.20;99.90
21306;DHT22;10812;51.838;5.838;2023-07-22T11:37:12;24.50;99.90
21306;DHT22;10812;51.838;5.838;2023-07-22T11:39:42;24.70;99.90
21306;DHT22;10812;51.838;5.838;2023-07-22T11:42:11;24.90;99.90
21306;DHT22;10812;51.838;5.838;2023-07-22T11:44:39;24.90;99.90
21306;DHT22;10812;51.838;5.838;2023-07-22T11:47:09;24.80;99.90
21306;DHT22;10812;51.838;5.838;2023-07-22T11:49:38;25.00;99.90
21306;DHT22;10812;51.838;5.838;2023-07-22T11:52:08;25.10;99.90
21306;DHT22;10812;51.838;5.838;2023-07-22T11:54:39;25.20;99.90
21306;DHT22;10812;51.838;5.838;2023-07-22T11:57:12;25.20;99.90
21306;DHT22;10812;51.838;5.838;2023-07-22T11:59:44;25.10;99.80
21306;DHT22;10812;51.838;5.838;2023-07-22T12:02:17;25.00;99.80
21306;DHT22;10812;51.838;5.838;2023-07-22T12:04:51;25.10;99.90
21306;DHT22;10812;51.838;5.838;2023-07-22T12:07:24;25.50;99.00
21306;DHT22;10812;51.838;5.838;2023-07-22T12:09:55;25.70;99.10
21306;DHT22;10812;51.838;5.838;2023-07-22T12:12:32;25.60;98.90
21306;DHT22;10812;51.838;5.838;2023-07-22T12:15:02;25.40;99.10
21306;DHT22;10812;51.838;5.838;2023-07-22T12:17:45;25.40;98.90
21306;DHT22;10812;51.838;5.838;2023-07-22T12:20:14;25.80;99.30
21306;DHT22;10812;51.838;5.838;2023-07-22T12:22:42;25.80;97.90
21306;DHT22;10812;51.838;5.838;2023-07-22T12:25:11;26.10;97.50
21306;DHT22;10812;51.838;5.838;2023-07-22T12:27:39;25.90;97.10
21306;DHT22;10812;51.838;5.838;2023-07-22T12:30:07;25.70;97.10
21306;DHT22;10812;51.838;5.838;2023-07-22T12:32:36;25.60;96.70
21306;DHT22;10812;51.838;5.838;2023-07-22T12:35:06;25.30;96.70
21306;DHT22;10812;51.838;5.838;2023-07-22T12:37:35;24.80;97.80
21306;DHT22;10812;51.838;5.838;2023-07-22T12:40:04;24.50;97.70
21306;DHT22;10812;51.838;5.838;2023-07-22T12:42:35;24.00;98.40
21306;DHT22;10812;51.838;5.838;2023-07-22T12:45:04;23.60;99.10
21306;DHT22;10812;51.838;5.838;2023-07-22T12:47:32;23.40;99.70
21306;DHT22;10812;51.838;5.838;2023-07-22T12:50:00;23.10;99.90
21306;DHT22;10812;51.838;5.838;2023-07-22T12:52:30;23.00;99.90
21306;DHT22;10812;51.838;5.838;2023-07-22T12:54:58;23.00;99.90
21306;DHT22;10812;51.838;5.838;2023-07-22T12:57:26;22.80;99.90
21306;DHT22;10812;51.838;5.838;2023-07-22T12:59:54;22.80;99.90
21306;DHT22;10812;51.838;5.838;2023-07-22T13:02:22;22.90;99.90
21306;DHT22;10812;51.838;5.838;2023-07-22T13:04:52;23.20;99.90
21306;DHT22;10812;51.838;5.838;2023-07-22T13:07:20;23.50;99.70
21306;DHT22;10812;51.838;5.838;2023-07-22T13:09:50;24.00;99.60
21306;DHT22;10812;51.838;5.838;2023-07-22T13:12:20;24.60;98.90
21306;DHT22;10812;51.838;5.838;2023-07-22T13:14:48;24.80;98.50
21306;DHT22;10812;51.838;5.838;2023-07-22T13:17:16;25.00;98.10
21306;DHT22;10812;51.838;5.838;2023-07-22T13:19:44;25.20;98.00
21306;DHT22;10812;51.838;5.838;2023-07-22T13:22:12;25.40;97.40
21306;DHT22;10812;51.838;5.838;2023-07-22T13:24:41;25.40;97.40
21306;DHT22;10812;51.838;5.838;2023-07-22T13:27:10;25.60;97.30
21306;DHT22;10812;51.838;5.838;2023-07-22T13:29:39;25.70;97.10
21306;DHT22;10812;51.838;5.838;2023-07-22T13:32:07;25.70;96.70
21306;DHT22;10812;51.838;5.838;2023-07-22T13:34:36;25.40;97.00
21306;DHT22;10812;51.838;5.838;2023-07-22T13:37:04;25.10;97.00
21306;DHT22;10812;51.838;5.838;2023-07-22T13:39:33;24.90;96.80
21306;DHT22;10812;51.838;5.838;2023-07-22T13:42:01;24.90;97.10
21306;DHT22;10812;51.838;5.838;2023-07-22T13:44:30;24.90;96.90
21306;DHT22;10812;51.838;5.838;2023-07-22T13:46:58;25.00;97.20
21306;DHT22;10812;51.838;5.838;2023-07-22T13:49:26;25.20;97.10
21306;DHT22;10812;51.838;5.838;2023-07-22T13:51:55;25.10;96.70
21306;DHT22;10812;51.838;5.838;2023-07-22T13:54:23;25.00;97.00
21306;DHT22;10812;51.838;5.838;2023-07-22T13:56:51;24.70;96.80
21306;DHT22;10812;51.838;5.838;2023-07-22T13:59:19;24.50;97.10
21306;DHT22;10812;51.838;5.838;2023-07-22T14:01:48;24.20;97.60
21306;DHT22;10812;51.838;5.838;2023-07-22T14:04:16;23.90;97.90
21306;DHT22;10812;51.838;5.838;2023-07-22T14:06:44;23.70;97.90
21306;DHT22;10812;51.838;5.838;2023-07-22T14:09:12;23.40;98.30
21306;DHT22;10812;51.838;5.838;2023-07-22T14:11:40;23.20;98.90
21306;DHT22;10812;51.838;5.838;2023-07-22T14:14:08;22.90;99.00
21306;DHT22;10812;51.838;5.838;2023-07-22T14:16:36;22.90;99.40
21306;DHT22;10812;51.838;5.838;2023-07-22T14:19:06;22.80;99.60
21306;DHT22;10812;51.838;5.838;2023-07-22T14:21:34;22.80;99.90
21306;DHT22;10812;51.838;5.838;2023-07-22T14:24:02;23.00;99.70
21306;DHT22;10812;51.838;5.838;2023-07-22T14:26:31;23.20;99.50
21306;DHT22;10812;51.838;5.838;2023-07-22T14:28:59;23.40;99.00
21306;DHT22;10812;51.838;5.838;2023-07-22T14:31:27;23.60;98.80
21306;DHT22;10812;51.838;5.838;2023-07-22T14:33:56;23.70;99.90
21306;DHT22;10812;51.838;5.838;2023-07-22T14:36:25;23.60;99.90
21306;DHT22;10812;51.838;5.838;2023-07-22T14:38:53;23.60;99.90
21306;DHT22;10812;51.838;5.838;2023-07-22T14:41:22;23.60;99.90
21306;DHT22;10812;51.838;5.838;2023-07-22T14:43:51;23.50;99.90
21306;DHT22;10812;51.838;5.838;2023-07-22T14:46:19;23.50;99.90
21306;DHT22;10812;51.838;5.838;2023-07-22T14:48:48;23.60;99.90
21306;DHT22;10812;51.838;5.838;2023-07-22T14:51:16;23.80;99.90
21306;DHT22;10812;51.838;5.838;2023-07-22T14:53:45;23.60;99.90
21306;DHT22;10812;51.838;5.838;2023-07-22T14:56:13;23.80;99.90
21306;DHT22;10812;51.838;5.838;2023-07-22T14:58:41;23.90;99.90
21306;DHT22;10812;51.838;5.838;2023-07-22T15:01:09;23.60;99.90
21306;DHT22;10812;51.838;5.838;2023-07-22T15:03:38;23.00;99.90
21306;DHT22;10812;51.838;5.838;2023-07-22T15:06:06;22.70;99.90
21306;DHT22;10812;51.838;5.838;2023-07-22T15:08:34;22.30;99.90
21306;DHT22;10812;51.838;5.838;2023-07-22T15:11:04;22.00;99.90
21306;DHT22;10812;51.838;5.838;2023-07-22T15:13:32;21.80;99.90
21306;DHT22;10812;51.838;5.838;2023-07-22T15:16:00;21.30;99.90
21306;DHT22;10812;51.838;5.838;2023-07-22T15:18:28;21.10;99.90
21306;DHT22;10812;51.838;5.838;2023-07-22T15:20:56;21.00;99.90
21306;DHT22;10812;51.838;5.838;2023-07-22T15:23:24;20.90;99.90
21306;DHT22;10812;51.838;5.838;2023-07-22T15:25:52;20.80;99.90
21306;DHT22;10812;51.838;5.838;2023-07-22T15:28:22;20.60;99.90
21306;DHT22;10812;51.838;5.838;2023-07-22T15:30:50;20.60;99.90
21306;DHT22;10812;51.838;5.838;2023-07-22T15:33:18;20.60;99.90
21306;DHT22;10812;51.838;5.838;2023-07-22T15:35:46;20.60;99.90
21306;DHT22;10812;51.838;5.838;2023-07-22T15:38:14;20.70;99.90
21306;DHT22;10812;51.838;5.838;2023-07-22T15:40:42;20.50;99.90
21306;DHT22;10812;51.838;5.838;2023-07-22T15:43:11;20.40;99.90
21306;DHT22;10812;51.838;5.838;2023-07-22T15:45:40;20.30;99.90
21306;DHT22;10812;51.838;5.838;2023-07-22T15:48:08;20.30;99.90
21306;DHT22;10812;51.838;5.838;2023-07-22T15:50:37;20.30;99.90
21306;DHT22;10812;51.838;5.838;2023-07-22T15:53:05;20.30;99.90
21306;DHT22;10812;51.838;5.838;2023-07-22T15:55:33;20.30;99.90
21306;DHT22;10812;51.838;5.838;2023-07-22T15:58:01;20.20;99.90
21306;DHT22;10812;51.838;5.838;2023-07-22T16:00:30;20.20;99.90
21306;DHT22;10812;51.838;5.838;2023-07-22T16:02:59;20.30;99.90
21306;DHT22;10812;51.838;5.838;2023-07-22T16:05:27;20.50;99.90
21306;DHT22;10812;51.838;5.838;2023-07-22T16:07:56;20.50;99.90
21306;DHT22;10812;51.838;5.838;2023-07-22T16:10:24;20.60;99.90